Flight Track Log - Related Links

Times and Time Zones

All times are in EDT time to prevent confusion due to time zone crossing. See the DAL1981 flight status page for this flight to view local times or setup timezone preferences in your user account.

Time Position Orientation Groundspeed Altitude Reporting Facility
EDT Latitude Longitude Course Direction KTS MPH feet Rate Location/Type
Sun 03:47:11 PM 38.6667 -121.5667 78° East 161 185 1,600  Level Northern Cal TRACON
Sun 03:48:05 PM 38.6333 -121.5167 130° Southeast 219 252 2,500 1,632 Climbing Northern Cal TRACON
Sun 03:49:00 PM 38.4964 -121.2583 80° East  Level FlightAware Approximate
Sun 03:49:05 PM 38.6000 -121.4333 117° Southeast 284 327 4,700  Level Northern Cal TRACON
Sun 03:50:00 PM 38.5330 -121.1017 76° East  Level FlightAware Approximate
Sun 03:50:08 PM 38.6108 -121.3381 82° East 296 341 7,600  Level Oakland Center
Sun 03:51:00 PM 38.5625 -120.9420 78° East  Level FlightAware Approximate
Sun 03:51:09 PM 38.6222 -121.2358 82° East 294 338 10,400  Level Oakland Center
Sun 03:52:00 PM 38.5893 -120.7815 78° East  Level FlightAware Approximate
Sun 03:52:11 PM 38.6339 -121.1039 84° East 336 387 11,600  Level Oakland Center
Sun 03:53:12 PM 38.6478 -120.9647 83° East 388 447 13,600 2,341 Climbing Oakland Center
Sun 03:54:14 PM 38.6614 -120.8272 83° East 389 448 16,400 2,537 Climbing Oakland Center
Sun 03:55:15 PM 38.6736 -120.6953 83° East 377 434 18,800 1,854 Climbing Oakland Center
Sun 03:56:17 PM 38.6864 -120.5578 83° East 385 443 20,200 1,306 Climbing Oakland Center
Sun 03:57:19 PM 38.7178 -120.4181 74° East 412 474 21,500 1,171 Climbing Oakland Center
Sun 03:58:20 PM 38.7681 -120.2792 65° Northeast 425 489 22,600 1,024 Climbing Oakland Center
Sun 03:59:22 PM 38.8211 -120.1344 65° Northeast 442 509 23,600 976 Climbing Oakland Center
Sun 04:00:23 PM 38.8758 -119.9842 65° Northeast 461 531 24,600 927 Climbing Oakland Center
Sun 04:01:25 PM 38.9422 -119.7986 65° Northeast 474 545 25,500 1,024 Climbing Oakland Center
Sun 04:02:26 PM 39.0017 -119.6342 65° Northeast 490 564 26,700 1,024 Climbing Oakland Center
Sun 04:03:28 PM 39.0581 -119.4744 66° East 491 565 27,600 774 Climbing Oakland Center
Sun 04:04:30 PM 39.1156 -119.3133 65° Northeast 495 570 28,300 780 Climbing Oakland Center
Sun 04:05:31 PM 39.1722 -119.1503 66° East 500 575 29,200 1,024 Climbing Oakland Center
Sun 04:06:33 PM 39.2342 -118.9739 66° East 501 577 30,400 1,073 Climbing Oakland Center
Sun 04:07:34 PM 39.2903 -118.8122 66° East 495 570 31,400 1,317 Climbing Oakland Center
Sun 04:08:36 PM 39.3436 -118.6525 67° East 486 559 33,100 1,171 Climbing Oakland Center
Sun 04:09:37 PM 39.3989 -118.4964 65° Northeast 478 550 33,800 683 Climbing Oakland Center
Sun 04:10:39 PM 39.4536 -118.3369 66° East 472 543 34,500 585 Climbing Oakland Center
Sun 04:11:40 PM 39.5053 -118.1836 66° East 469 540 35,000 244 Climbing Oakland Center
Sun 04:12:42 PM 39.5569 -118.0308 66° East 465 535 35,000  Level Oakland Center
Sun 04:13:43 PM 39.6086 -117.8767 66° East 467 537 35,000  Level Oakland Center
Sun 04:14:45 PM 39.6728 -117.6861 66° East 480 552 35,000  Level Oakland Center
Sun 04:15:46 PM 39.7219 -117.5375 67° East 480 552 35,000 -49 Level Oakland Center
Sun 04:16:48 PM 39.7708 -117.3869 67° East 476 548 34,900 -49 Descending Oakland Center
Sun 04:17:49 PM 39.8275 -117.2108 67° East 475 547 34,900 49 Level Oakland Center
Sun 04:18:51 PM 39.8778 -117.0608 66° East 474 545 35,000 49 Climbing Oakland Center
Sun 04:19:52 PM 39.9358 -116.8850 67° East 476 548 35,000  Level Oakland Center
Sun 04:20:54 PM 39.9842 -116.7319 68° East 479 551 35,000  Level Oakland Center
Sun 04:21:49 PM 40.0342 -116.5753 67° East 485 558 35,000  Level Salt Lake Center
Sun 04:22:51 PM 40.0836 -116.4222 67° East 482 555 35,000  Level Salt Lake Center
Sun 04:23:53 PM 40.1397 -116.2425 68° East 480 552 35,000  Level Salt Lake Center
Sun 04:24:55 PM 40.1900 -116.0867 67° East 486 559 35,000  Level Salt Lake Center
Sun 04:25:57 PM 40.2456 -115.9069 68° East 482 555 35,000  Level Salt Lake Center
Sun 04:26:59 PM 40.2953 -115.7525 67° East 482 555 35,000  Level Salt Lake Center
Sun 04:28:00 PM 40.3533 -115.5728 67° East 481 554 35,000  Level Salt Lake Center
Sun 04:29:02 PM 40.4000 -115.4183 68° East 478 550 35,000  Level Salt Lake Center
Sun 04:30:04 PM 40.4547 -115.2389 68° East 475 547 35,000  Level Salt Lake Center
Sun 04:31:06 PM 40.5022 -115.0844 68° East 476 548 35,000  Level Salt Lake Center
Sun 04:32:08 PM 40.5572 -114.9056 68° East 474 545 35,000  Level Salt Lake Center
Sun 04:33:10 PM 40.6050 -114.7425 69° East 473 544 35,000  Level Salt Lake Center
Sun 04:34:12 PM 40.6547 -114.5817 68° East 474 545 35,000  Level Salt Lake Center
Sun 04:35:13 PM 40.7031 -114.4208 68° East 474 545 35,000  Level Salt Lake Center
Sun 04:36:15 PM 40.7489 -114.2617 69° East 469 540 35,000  Level Salt Lake Center
Sun 04:37:17 PM 40.7942 -114.1000 70° East 469 540 35,000  Level Salt Lake Center
Sun 04:38:19 PM 40.8417 -113.9394 69° East 470 541 35,000  Level Salt Lake Center
Sun 04:39:21 PM 40.8967 -113.7464 69° East 470 541 35,000  Level Salt Lake Center
Sun 04:40:23 PM 40.9422 -113.5853 69° East 469 540 35,000  Level Salt Lake Center
Sun 04:41:25 PM 40.9875 -113.4222 70° East 472 543 35,000  Level Salt Lake Center
Sun 04:42:27 PM 41.0344 -113.2606 69° East 472 543 35,000  Level Salt Lake Center
Sun 04:43:29 PM 41.0786 -113.0975 70° East 472 543 35,000  Level Salt Lake Center
Sun 04:44:30 PM 41.1244 -112.9344 69° East 473 544 35,000  Level Salt Lake Center
Sun 04:45:32 PM 41.1789 -112.7386 70° East 471 542 35,000  Level Salt Lake Center
Sun 04:46:34 PM 41.2242 -112.5764 70° East 468 539 35,000  Level Salt Lake Center
Sun 04:47:36 PM 41.2689 -112.4122 70° East 471 542 35,000  Level Salt Lake Center
Sun 04:48:38 PM 41.3139 -112.2475 70° East 472 543 35,000  Level Salt Lake Center
Sun 04:49:40 PM 41.3586 -112.0808 70° East 473 544 35,000  Level Salt Lake Center
Sun 04:50:42 PM 41.4039 -111.9142 70° East 475 547 35,000  Level Salt Lake Center
Sun 04:51:44 PM 41.4478 -111.7469 71° East 475 547 35,000  Level Salt Lake Center
Sun 04:52:45 PM 41.4922 -111.5800 70° East 475 547 35,000  Level Salt Lake Center
Sun 04:53:47 PM 41.5358 -111.4133 71° East 474 545 35,000  Level Salt Lake Center
Sun 04:54:49 PM 41.5872 -111.2142 71° East 471 542 35,000  Level Salt Lake Center
Sun 04:55:51 PM 41.6306 -111.0464 71° East 476 548 35,000  Level Salt Lake Center
Sun 04:56:53 PM 41.6733 -110.8828 71° East 478 550 35,000  Level Salt Lake Center
Sun 04:57:55 PM 41.7206 -110.6944 71° East 479 551 35,000  Level Salt Lake Center
Sun 04:58:57 PM 41.7622 -110.5325 71° East 480 552 35,000  Level Salt Lake Center
Sun 04:59:58 PM 41.8106 -110.3453 71° East 478 550 35,000  Level Salt Lake Center
Sun 05:01:00 PM 41.8508 -110.1836 71° East 478 550 35,000  Level Salt Lake Center
Sun 05:02:02 PM 41.8914 -110.0214 71° East 479 551 35,000  Level Salt Lake Center
Sun 05:03:04 PM 41.9378 -109.8339 72° East 475 547 35,000  Level Salt Lake Center
Sun 05:04:06 PM 41.9772 -109.6706 72° East 477 549 35,000  Level Salt Lake Center
Sun 05:05:08 PM 42.0244 -109.4797 72° East 481 554 35,000  Level Salt Lake Center
Sun 05:06:10 PM 42.0650 -109.3153 72° East 481 554 35,000  Level Salt Lake Center
Sun 05:07:12 PM 42.1103 -109.1228 72° East 482 555 35,000  Level Salt Lake Center
Sun 05:08:14 PM 42.1492 -108.9575 72° East 482 555 35,000  Level Salt Lake Center
Sun 05:09:16 PM 42.1886 -108.7944 72° East 479 551 35,000  Level Salt Lake Center
Sun 05:10:18 PM 42.2336 -108.6003 73° East 483 556 35,000  Level Salt Lake Center
Sun 05:11:20 PM 42.2725 -108.4336 72° East 485 558 35,000  Level Salt Lake Center
Sun 05:12:22 PM 42.3181 -108.2394 72° East 486 559 35,000  Level Salt Lake Center
Sun 05:13:23 PM 42.3556 -108.0725 73° East 485 558 35,000  Level Salt Lake Center
Sun 05:14:25 PM 42.4006 -107.8756 73° East 490 564 35,000  Level Salt Lake Center
Sun 05:15:27 PM 42.4386 -107.7058 73° East 492 566 35,000  Level Salt Lake Center
Sun 05:16:29 PM 42.4828 -107.5067 73° East 493 567 35,000  Level Salt Lake Center
Sun 05:17:31 PM 42.5208 -107.3372 73° East 493 567 35,000  Level Salt Lake Center
Sun 05:18:16 PM 42.5506 -107.1939 74° East 491 565 35,000  Level Denver Center
Sun 05:19:18 PM 42.5872 -107.0233 74° East 492 566 35,000  Level Denver Center
Sun 05:20:20 PM 42.6289 -106.8325 73° East 494 568 35,000  Level Denver Center
Sun 05:21:21 PM 42.6642 -106.6603 74° East 495 570 35,000  Level Denver Center
Sun 05:22:23 PM 42.7069 -106.4592 74° East 495 570 35,000  Level Denver Center
Sun 05:23:25 PM 42.7447 -106.2861 73° East 496 571 35,000  Level Denver Center
Sun 05:24:27 PM 42.7856 -106.0839 75° East 496 571 35,000  Level Denver Center
Sun 05:25:29 PM 42.8219 -105.9097 74° East 498 573 35,000  Level Denver Center
Sun 05:26:31 PM 42.8633 -105.7042 75° East 502 578 35,000  Level Denver Center
Sun 05:27:33 PM 42.8994 -105.5275 74° East 504 580 35,000  Level Denver Center
Sun 05:28:35 PM 42.9353 -105.3517 74° East 500 575 35,000  Level Denver Center
Sun 05:29:37 PM 42.9747 -105.1453 75° East 503 579 35,000  Level Denver Center
Sun 05:30:38 PM 43.0100 -104.9678 75° East 503 579 35,000  Level Denver Center
Sun 05:31:40 PM 43.0508 -104.7592 75° East 504 580 35,000  Level Denver Center
Sun 05:32:42 PM 43.0794 -104.6092 75° East 505 581 35,000  Level Denver Center
Sun 05:33:44 PM 43.1200 -104.3978 75° East 508 585 35,000  Level Denver Center
Sun 05:34:46 PM 43.1589 -104.1872 76° East 510 587 35,000  Level Denver Center
Sun 05:35:48 PM 43.1928 -104.0064 76° East 510 587 35,000  Level Denver Center
Sun 05:37:02 PM 43.2328 -103.7942 75° East 512 589 35,000  Level Denver Center
Sun 05:38:04 PM 43.2711 -103.5850 76° East 509 586 35,000  Level Denver Center
Sun 05:39:06 PM 43.3089 -103.3731 76° East 509 586 35,000  Level Denver Center
Sun 05:40:08 PM 43.3417 -103.1906 76° East 514 592 35,000  Level Denver Center
Sun 05:41:10 PM 43.3778 -102.9772 77° East 515 593 35,000  Level Denver Center
Sun 05:42:12 PM 43.4103 -102.7964 76° East 515 593 35,000  Level Denver Center
Sun 05:43:13 PM 43.4481 -102.5794 76° East 515 593 35,000  Level Denver Center
Sun 05:44:15 PM 43.4783 -102.3953 77° East 519 597 35,000  Level Denver Center
Sun 05:45:17 PM 43.5122 -102.1769 78° East 520 598 35,000  Level Denver Center
Sun 05:46:19 PM 43.5467 -101.9947 75° East 514 592 35,000  Level Denver Center
Sun 05:47:20 PM 43.5722 -101.8417 77° East 513 590 35,000  Level Denver Center
Sun 05:48:22 PM 43.6103 -101.6117 77° East 514 592 35,000  Level Denver Center
Sun 05:48:57 PM 43.6286 -101.4939 78° East 519 597 35,000  Level Minneapolis Center
Sun 05:49:59 PM 43.6603 -101.3003 77° East 519 597 35,000  Level Minneapolis Center
Sun 05:51:01 PM 43.6903 -101.1072 78° East 518 596 35,000  Level Minneapolis Center
Sun 05:52:03 PM 43.7272 -100.8736 78° East 519 597 35,000  Level Minneapolis Center
Sun 05:53:05 PM 43.7561 -100.6786 78° East 520 598 35,000  Level Minneapolis Center
Sun 05:54:19 PM 43.7917 -100.4433 78° East 522 601 35,000  Level Minneapolis Center
Sun 05:55:21 PM 43.8214 -100.2506 78° East 520 598 35,000  Level Minneapolis Center
Sun 05:56:23 PM 43.8511 -100.0572 78° East 518 596 35,000  Level Minneapolis Center
Sun 05:57:25 PM 43.8806 -99.8614 78° East 520 598 35,000  Level Minneapolis Center
Sun 05:58:27 PM 43.9133 -99.6231 79° East 525 604 35,000  Level Minneapolis Center
Sun 05:59:29 PM 43.9419 -99.4247 79° East 526 605 35,000  Level Minneapolis Center
Sun 06:00:31 PM 43.9700 -99.2267 79° East 526 605 35,000  Level Minneapolis Center
Sun 06:01:32 PM 43.9986 -99.0286 79° East 526 605 35,000  Level Minneapolis Center
Sun 06:02:34 PM 44.0258 -98.8328 79° East 522 601 35,000  Level Minneapolis Center
Sun 06:03:36 PM 44.0550 -98.6147 79° East 522 601 35,000  Level Minneapolis Center
Sun 06:04:38 PM 44.0822 -98.4153 79° East 525 604 35,000  Level Minneapolis Center
Sun 06:05:40 PM 44.1069 -98.2175 80° East 523 602 35,000  Level Minneapolis Center
Sun 06:06:42 PM 44.1328 -98.0206 80° East 520 598 35,000  Level Minneapolis Center
Sun 06:07:44 PM 44.1594 -97.8217 79° East 524 603 35,000  Level Minneapolis Center
Sun 06:08:45 PM 44.1886 -97.5850 80° East 519 597 35,000  Level Minneapolis Center
Sun 06:09:47 PM 44.2131 -97.3867 80° East 521 600 35,000  Level Minneapolis Center
Sun 06:10:49 PM 44.2369 -97.1900 80° East 518 596 35,000  Level Minneapolis Center
Sun 06:11:51 PM 44.2603 -96.9933 81° East 515 593 35,000 -387 Level Minneapolis Center
Sun 06:12:53 PM 44.2833 -96.7986 81° East 511 588 34,200 -968 Descending Minneapolis Center
Sun 06:13:55 PM 44.3064 -96.6019 81° East 511 588 33,000 -1,500 Descending Minneapolis Center
Sun 06:14:57 PM 44.3300 -96.4019 81° East 516 594 31,100 -1,452 Descending Minneapolis Center
Sun 06:15:59 PM 44.3550 -96.1936 80° East 527 606 30,000 -1,113 Descending Minneapolis Center
Sun 06:17:01 PM 44.3817 -95.9458 81° East 529 609 28,800 -1,024 Descending Minneapolis Center
Sun 06:18:02 PM 44.4036 -95.7456 81° East 521 600 27,900 -927 Descending Minneapolis Center
Sun 06:19:04 PM 44.4239 -95.5558 81° East 499 574 26,900 -919 Descending Minneapolis Center
Sun 06:20:06 PM 44.4431 -95.3742 82° East 477 549 26,000 -968 Descending Minneapolis Center
Sun 06:21:08 PM 44.4597 -95.1936 83° East 471 542 24,900 -1,597 Descending Minneapolis Center
Sun 06:22:10 PM 44.4906 -95.0225 76° East 458 527 22,700 -2,129 Descending Minneapolis Center
Sun 06:23:12 PM 44.5322 -94.8600 70° East 450 518 20,500 -2,323 Descending Minneapolis Center
Sun 06:24:14 PM 44.5769 -94.6703 72° East 439 505 17,900 -2,226 Descending Minneapolis Center
Sun 06:25:16 PM 44.6122 -94.5169 72° East 421 484 15,900 -1,887 Descending Minneapolis Center
Sun 06:26:18 PM 44.6453 -94.3700 72° East 399 459 14,000 -1,887 Descending Minneapolis Center
Sun 06:27:20 PM 44.6781 -94.2269 72° East 382 440 12,000 -1,452 Descending Minneapolis Center
Sun 06:28:22 PM 44.7100 -94.0822 73° East 389 448 11,000 -484 Descending Minneapolis Center
Sun 06:29:24 PM 44.7439 -93.9336 72° East 398 458 11,000  Level Minneapolis Center
Sun 06:30:26 PM 44.7831 -93.7561 73° East 397 457 11,000  Level Minneapolis Center
Sun 06:31:28 PM 44.8161 -93.6081 72° East 398 458 11,000 -242 Level Minneapolis Center
Sun 06:32:30 PM 44.8481 -93.4617 73° East 391 450 10,500 -774 Descending Minneapolis Center
Sun 06:33:32 PM 44.8425 -93.3358 94° East 331 381 9,400 -871 Descending Minneapolis Center
Sun 06:34:34 PM 44.7925 -93.2408 127° Southeast 298 343 8,700 -919 Descending Minneapolis Center
Sun 06:35:36 PM 44.7453 -93.1547 128° Southeast 265 305 7,500 -1,403 Descending Minneapolis Center
Sun 06:36:38 PM 44.7039 -93.0769 127° Southeast 250 288 5,800 -1,355 Descending Minneapolis Center
Sun 06:37:40 PM 44.6875 -92.9897 105° East 257 296 4,700 -871 Descending Minneapolis Center
Sun 06:38:42 PM 44.7444 -92.9942 357° North 237 273 4,000 -677 Descending Minneapolis Center
Sun 06:39:44 PM 44.8014 -93.0497 325° Northwest 210 242 3,300 -677 Descending Minneapolis Center

Login

Don't have an account? Register now (free) for customized features, flight alerts, and more!